Terminal Aerodrome Forecast
Issued by NWS

Home | Current Version | Previous Version | Text Only | Print | Product List | Glossary On
Versions: 1 2 3 4 5 6 7 8 9 10 11 12 13 14 15 16
000
FTUS41 KGYX 181743
TAFPSM
TAF
KPSM 181743Z 1818/1918 11008KT 3SM -SHRA BR SCT005 OVC012
      TEMPO 1818/1822 1SM RA BR BKN002 OVC007
     FM182200 13009KT 4SM -SHRA BR BKN004 OVC012
     FM190400 16007KT 1SM BR OVC003
     FM191500 VRB04KT P6SM BKN030 BKN080=

USA.gov is the U.S. government's official web portal to all federal, state and local government web resources and services.